createdAt,value
2022-07-28T00:02:51.072Z,11
2022-07-28T00:08:03.665Z,10
2022-07-28T00:13:16.169Z,7
2022-07-28T00:18:28.767Z,2
2022-07-28T00:23:41.347Z,1
2022-07-28T00:28:53.809Z,1
2022-07-28T00:34:06.519Z,1
2022-07-28T00:39:19.084Z,1
2022-07-28T00:44:31.675Z,0
2022-07-28T00:49:44.190Z,0
2022-07-28T00:54:56.679Z,0
2022-07-28T01:00:09.270Z,0
2022-07-28T01:05:45.235Z,0
2022-07-28T01:10:53.959Z,0
2022-07-28T01:16:07.522Z,100
2022-07-28T01:21:19.896Z,100
2022-07-28T01:26:33.483Z,100
2022-07-28T01:31:46.135Z,100
2022-07-28T01:36:58.616Z,100
2022-07-28T01:42:11.248Z,100
2022-07-28T01:47:23.676Z,100
2022-07-28T01:52:36.299Z,100
2022-07-28T01:57:49.537Z,100
2022-07-28T02:03:02.748Z,100
2022-07-28T02:08:15.114Z,100
2022-07-28T02:13:27.898Z,100
2022-07-28T02:18:41.355Z,100
2022-07-28T02:23:53.573Z,100
2022-07-28T02:29:05.784Z,100
2022-07-28T02:34:25.090Z,100
2022-07-28T02:39:38.367Z,100
2022-07-28T02:44:50.679Z,100
2022-07-28T02:50:02.840Z,100
2022-07-28T02:55:14.943Z,100
2022-07-28T03:00:27.001Z,100
2022-07-28T03:05:39.727Z,100
2022-07-28T03:10:51.798Z,100
2022-07-28T03:16:03.979Z,100
2022-07-28T03:21:16.289Z,100
2022-07-28T03:26:28.677Z,100
2022-07-28T03:31:41.699Z,100
2022-07-28T03:36:54.719Z,100
2022-07-28T03:42:06.969Z,100
2022-07-28T03:47:19.368Z,100
2022-07-28T03:52:31.670Z,100
2022-07-28T03:57:44.147Z,100
2022-07-28T04:02:56.516Z,100
2022-07-28T04:08:08.879Z,100
2022-07-28T04:13:21.161Z,100
2022-07-28T04:18:33.324Z,100
2022-07-28T04:23:45.641Z,100
2022-07-28T04:28:58.040Z,100
2022-07-28T04:34:10.509Z,100
2022-07-28T04:39:23.401Z,100
2022-07-28T04:44:35.695Z,100
2022-07-28T04:49:47.869Z,100
2022-07-28T04:55:00.287Z,100
2022-07-28T05:00:13.949Z,100
2022-07-28T05:05:25.927Z,100
2022-07-28T05:10:38.163Z,100
2022-07-28T05:15:50.620Z,100
2022-07-28T05:21:04.386Z,100
2022-07-28T05:26:16.416Z,100
2022-07-28T05:31:29.086Z,100
2022-07-28T05:36:41.346Z,100
2022-07-28T05:41:53.715Z,100
2022-07-28T05:47:06.222Z,100
2022-07-28T05:52:18.595Z,100
2022-07-28T05:57:31.075Z,100
2022-07-28T06:02:43.931Z,100
2022-07-28T06:07:56.289Z,100
2022-07-28T06:13:08.857Z,100
2022-07-28T06:18:21.446Z,100
2022-07-28T06:23:33.988Z,100
2022-07-28T06:28:46.605Z,100
2022-07-28T06:33:59.294Z,100
2022-07-28T06:39:11.953Z,100
2022-07-28T06:44:59.968Z,100
2022-07-28T06:50:27.890Z,100
2022-07-28T06:55:37.496Z,100
2022-07-28T07:00:50.241Z,100
2022-07-28T07:06:02.871Z,100
2022-07-28T07:11:15.835Z,100
2022-07-28T07:16:38.858Z,100
2022-07-28T07:21:51.486Z,100
2022-07-28T07:27:04.163Z,100
2022-07-28T07:32:16.763Z,0
2022-07-28T07:37:29.353Z,0
2022-07-28T07:42:41.953Z,0
2022-07-28T07:47:54.701Z,0
2022-07-28T07:53:07.322Z,0
2022-07-28T07:58:20.121Z,2
2022-07-28T08:03:35.831Z,1
2022-07-28T08:08:49.577Z,3
2022-07-28T08:14:01.575Z,4
2022-07-28T08:19:15.067Z,8
2022-07-28T08:24:35.372Z,88
2022-07-28T08:29:55.791Z,89
2022-07-28T08:35:36.373Z,91
2022-07-28T08:40:45.208Z,89
2022-07-28T08:45:59.678Z,86
2022-07-28T08:51:11.747Z,86
2022-07-28T08:56:24.495Z,84
2022-07-28T09:01:40.407Z,84
2022-07-28T09:06:55.417Z,84
2022-07-28T09:12:08.307Z,81
2022-07-28T09:17:21.095Z,80
2022-07-28T09:22:33.983Z,77
2022-07-28T09:27:46.741Z,78
2022-07-28T09:32:59.720Z,74
2022-07-28T09:38:12.411Z,77
2022-07-28T09:43:25.391Z,75
2022-07-28T09:48:39.031Z,73
2022-07-28T09:53:51.692Z,75
2022-07-28T09:59:09.219Z,71
2022-07-28T10:04:26.390Z,72
2022-07-28T10:09:39.260Z,70
2022-07-28T10:14:52.270Z,69
2022-07-28T10:20:05.052Z,66
2022-07-28T10:25:34.688Z,68
2022-07-28T10:30:47.043Z,68
2022-07-28T10:35:59.718Z,67
2022-07-28T10:41:13.828Z,66
2022-07-28T10:46:27.890Z,64
2022-07-28T10:52:49.064Z,63
2022-07-28T10:58:13.150Z,61
2022-07-28T11:03:24.241Z,61
2022-07-28T11:08:37.334Z,57
2022-07-28T11:13:54.029Z,58
2022-07-28T11:20:29.718Z,57
2022-07-28T11:25:36.558Z,57
2022-07-28T11:30:50.236Z,52
2022-07-28T11:36:03.823Z,49
2022-07-28T11:41:17.893Z,47
2022-07-28T11:51:56.460Z,44
2022-07-28T12:12:39.526Z,44
2022-07-28T12:17:52.679Z,43
2022-07-28T12:28:19.782Z,43
2022-07-28T12:33:31.596Z,41
2022-07-28T12:38:44.139Z,43
2022-07-28T12:43:57.070Z,41
2022-07-28T12:49:10.859Z,40
2022-07-28T12:54:24.005Z,38
2022-07-28T12:59:36.748Z,40
2022-07-28T13:10:01.602Z,53
2022-07-28T13:30:46.072Z,58
2022-07-28T13:46:22.273Z,59
2022-07-28T13:51:35.632Z,59
2022-07-28T14:12:19.234Z,62
2022-07-28T14:17:46.994Z,61
2022-07-28T14:33:17.698Z,59
2022-07-28T15:04:27.830Z,59
2022-07-28T15:09:51.027Z,59
2022-07-28T15:20:11.719Z,57
2022-07-28T15:30:50.238Z,54
2022-07-28T15:36:00.799Z,53
2022-07-28T15:46:24.268Z,50
2022-07-28T15:56:48.713Z,49
2022-07-28T16:02:01.649Z,49
2022-07-28T16:12:24.722Z,50
2022-07-28T16:17:41.219Z,49
2022-07-28T16:28:06.091Z,50
2022-07-28T16:33:18.722Z,48
2022-07-28T16:38:31.598Z,47
2022-07-28T16:43:45.652Z,49
2022-07-28T16:48:58.058Z,48
2022-07-28T16:54:10.742Z,48
2022-07-28T16:59:23.428Z,47
2022-07-28T17:09:57.155Z,48
2022-07-28T17:20:19.856Z,47
2022-07-28T17:27:39.720Z,48
2022-07-28T17:38:02.022Z,48
2022-07-28T17:48:26.181Z,58
2022-07-28T17:53:45.608Z,65
2022-07-28T18:14:33.453Z,75
2022-07-28T18:30:07.123Z,80
2022-07-28T18:35:19.692Z,79
2022-07-28T18:40:32.312Z,80
2022-07-28T18:45:44.791Z,81
2022-07-28T18:50:57.672Z,81
2022-07-28T18:56:10.272Z,81
2022-07-28T19:01:23.022Z,82
2022-07-28T19:06:35.404Z,83
2022-07-28T19:11:47.995Z,84
2022-07-28T19:17:00.303Z,86
2022-07-28T19:22:13.112Z,87
2022-07-28T19:27:31.931Z,88
2022-07-28T19:32:46.735Z,90
2022-07-28T19:38:00.641Z,91
2022-07-28T19:43:14.342Z,92
2022-07-28T19:48:26.383Z,93
2022-07-28T19:53:42.093Z,93
2022-07-28T19:59:01.564Z,92
2022-07-28T20:04:14.510Z,89
2022-07-28T20:09:26.984Z,86
2022-07-28T20:14:40.102Z,79
2022-07-28T20:19:52.471Z,72
2022-07-28T20:25:09.914Z,65
2022-07-28T20:30:23.696Z,60
2022-07-28T20:35:36.191Z,54
2022-07-28T20:40:51.792Z,45
2022-07-28T20:46:04.303Z,42
2022-07-28T20:51:16.932Z,34
2022-07-28T20:56:29.481Z,32
2022-07-28T21:01:42.419Z,28
2022-07-28T21:07:06.901Z,15
2022-07-28T21:12:18.144Z,17
2022-07-28T21:17:32.713Z,32
2022-07-28T21:22:45.532Z,42
2022-07-28T21:27:58.476Z,38
2022-07-28T21:33:10.971Z,30
2022-07-28T21:43:35.842Z,16
2022-07-28T21:48:48.508Z,11
2022-07-28T21:54:01.137Z,3
2022-07-28T21:59:13.381Z,1
2022-07-28T22:04:26.804Z,1
2022-07-28T22:09:39.072Z,0
2022-07-28T22:14:51.500Z,0
2022-07-28T22:20:03.926Z,100
2022-07-28T22:25:16.337Z,100
2022-07-28T22:30:28.606Z,100
2022-07-28T22:35:40.708Z,100
2022-07-28T22:40:53.418Z,100
2022-07-28T22:46:06.030Z,100
2022-07-28T22:51:18.479Z,100
2022-07-28T22:56:38.776Z,100
2022-07-28T23:01:54.195Z,100
2022-07-28T23:07:16.236Z,100
2022-07-28T23:12:28.545Z,100
2022-07-28T23:17:41.167Z,100
2022-07-28T23:22:53.806Z,100
2022-07-28T23:28:06.345Z,100
2022-07-28T23:33:58.407Z,100
2022-07-28T23:39:06.126Z,100
2022-07-28T23:44:19.596Z,100
2022-07-28T23:49:31.807Z,100
2022-07-28T23:54:44.206Z,100
2022-07-28T23:59:59.576Z,100
